Terminal Aerodrome Forecast
Issued by NWS

Home | Current Version | Previous Version | Text Only | Print | Product List | Glossary Off
Versions: 1 2 3 4 5 6 7 8 9 10 11 12 13

000
FTUS43 KMPX 242337
TAFAXN
TAF
KAXN 242337Z 2500/2524 31013KT P6SM SCT035 BKN070
     FM250100 31013KT P6SM BKN030
     FM250300 31013KT P6SM OVC015
     FM250900 31012KT P6SM SCT035
     FM251300 31015G23KT P6SM SCT045=

USA.gov is the U.S. government's official web portal to all federal, state and local government web resources and services.